Time;durP1;ratioP1;P1;durP2;ratioP2;P2;SDS_P1;SDS_P2;PMS_P1;PMS_P2;Temp;Humidity;BMP_temperature;BMP_pressure;BME280_temperature;BME280_humidity;BME280_pressure;Samples;Min_cycle;Max_cycle;Signal;HPM_P1;HPM_P2
2021/08/30 00:01:55;;;;;;;34.22;15.85;;;16.70;99.90;;;;;;5049161;28;20048;-83
2021/08/30 00:04:21;;;;;;;31.58;15.85;;;16.60;99.90;;;;;;5020592;28;20385;-83
2021/08/30 00:06:48;;;;;;;31.30;15.23;;;16.60;99.90;;;;;;5032262;28;20337;-82
2021/08/30 00:09:15;;;;;;;32.03;15.07;;;16.70;99.90;;;;;;5030104;28;20045;-82
2021/08/30 00:11:41;;;;;;;32.53;15.30;;;16.60;99.90;;;;;;5030092;28;20507;-83
2021/08/30 00:14:06;;;;;;;30.85;14.55;;;16.60;99.90;;;;;;5026958;28;20057;-82
2021/08/30 00:16:32;;;;;;;29.50;13.95;;;16.60;99.90;;;;;;5027916;28;20044;-82
2021/08/30 00:18:58;;;;;;;36.13;14.82;;;16.60;99.90;;;;;;5031289;28;20033;-82
2021/08/30 00:21:24;;;;;;;33.53;15.38;;;16.70;99.90;;;;;;5012505;28;20132;-82
2021/08/30 00:23:50;;;;;;;34.00;16.23;;;16.70;99.90;;;;;;5012560;28;20049;-83
2021/08/30 00:26:16;;;;;;;33.83;14.55;;;16.80;99.90;;;;;;5031469;28;20093;-83
2021/08/30 00:28:41;;;;;;;30.17;15.20;;;16.70;99.90;;;;;;5030740;28;20032;-82
2021/08/30 00:31:07;;;;;;;27.35;14.48;;;16.70;99.90;;;;;;5028309;28;20036;-82
2021/08/30 00:33:33;;;;;;;30.08;14.68;;;16.70;99.90;;;;;;5018751;28;20091;-82
2021/08/30 00:35:58;;;;;;;30.00;14.80;;;16.70;99.90;;;;;;5015093;28;20053;-82
2021/08/30 00:38:25;;;;;;;31.67;14.88;;;16.80;99.90;;;;;;5029454;28;20146;-83
2021/08/30 00:40:50;;;;;;;32.45;14.75;;;16.80;99.90;;;;;;5017948;28;20041;-83
2021/08/30 00:43:16;;;;;;;35.63;15.48;;;16.80;99.90;;;;;;5025648;28;20052;-81
2021/08/30 00:45:42;;;;;;;31.98;14.35;;;16.70;99.90;;;;;;5010738;28;20110;-83
2021/08/30 00:48:08;;;;;;;33.20;14.73;;;16.80;99.90;;;;;;5011013;28;20472;-83
2021/08/30 00:50:34;;;;;;;31.45;14.55;;;16.80;99.90;;;;;;5024120;28;20456;-83
2021/08/30 00:52:59;;;;;;;33.80;14.93;;;16.80;99.90;;;;;;5021984;28;20490;-83
2021/08/30 00:55:25;;;;;;;33.63;15.93;;;16.80;99.90;;;;;;5017689;28;20044;-82
2021/08/30 00:57:51;;;;;;;35.38;15.80;;;16.80;99.90;;;;;;5030467;28;20468;-82
2021/08/30 01:00:17;;;;;;;32.20;15.02;;;16.70;99.90;;;;;;5028112;28;20053;-82
2021/08/30 01:02:44;;;;;;;30.77;15.38;;;16.80;99.90;;;;;;5029494;28;20049;-82
2021/08/30 01:05:12;;;;;;;38.67;17.02;;;16.80;99.90;;;;;;5016097;28;20507;-82
2021/08/30 01:07:47;;;;;;;32.25;16.08;;;16.90;99.90;;;;;;5020981;28;20037;-83
2021/08/30 01:10:16;;;;;;;;;;;16.90;99.90;;;;;;5028715;28;20048;-82
2021/08/30 01:13:02;;;;;;;39.53;17.48;;;16.80;99.90;;;;;;5024914;28;19923;-83
2021/08/30 01:15:43;;;;;;;36.17;16.23;;;16.90;99.90;;;;;;5021383;28;20180;-82
2021/08/30 01:18:22;;;;;;;39.70;16.90;;;16.80;99.90;;;;;;5020262;28;20077;-81
2021/08/30 01:21:02;;;;;;;42.50;17.60;;;16.90;99.90;;;;;;5017382;28;20116;-82
2021/08/30 01:23:30;;;;;;;36.53;16.90;;;16.90;99.90;;;;;;5039789;28;20030;-83
2021/08/30 01:25:59;;;;;;;37.53;16.92;;;16.80;99.90;;;;;;5004098;28;20053;-83
2021/08/30 01:28:33;;;;;;;43.63;18.08;;;16.90;99.90;;;;;;5026224;28;20068;-82
2021/08/30 01:31:01;;;;;;;42.88;18.20;;;16.90;99.90;;;;;;5001149;28;20045;-83
2021/08/30 01:33:27;;;;;;;51.47;19.35;;;16.90;99.90;;;;;;5024282;28;20060;-83
2021/08/30 01:35:53;;;;;;;41.65;18.65;;;16.90;99.90;;;;;;5025302;28;20045;-82
2021/08/30 01:38:19;;;;;;;51.83;20.85;;;16.90;99.90;;;;;;5024050;28;20041;-82
2021/08/30 01:40:46;;;;;;;46.97;19.42;;;16.90;99.90;;;;;;5019765;28;20049;-83
2021/08/30 01:43:12;;;;;;;53.72;20.67;;;16.90;99.90;;;;;;5023369;28;20161;-83
2021/08/30 01:45:41;;;;;;;48.00;20.95;;;16.90;99.90;;;;;;5020919;28;20048;-83
2021/08/30 01:48:08;;;;;;;49.20;20.80;;;16.90;99.90;;;;;;5017039;28;20045;-83
2021/08/30 01:50:37;;;;;;;56.08;21.05;;;16.90;99.90;;;;;;5017348;28;20033;-83
2021/08/30 01:53:07;;;;;;;56.05;20.98;;;16.90;99.90;;;;;;4997081;28;20041;-83
2021/08/30 01:55:44;;;;;;;47.50;20.73;;;16.90;99.90;;;;;;5002977;28;20049;-82
2021/08/30 02:00:48;;;;;;;51.90;21.33;;;16.90;99.90;;;;;;5019644;28;20136;-83
2021/08/30 02:03:15;;;;;;;50.88;20.27;;;16.90;99.90;;;;;;5021248;28;20128;-83
2021/08/30 02:06:05;;;;;;;42.95;19.83;;;16.90;99.90;;;;;;5001229;28;20105;-82
2021/08/30 02:08:33;;;;;;;43.33;19.13;;;16.90;99.90;;;;;;5023666;28;20064;-83
2021/08/30 02:11:05;;;;;;;51.63;20.58;;;16.90;99.90;;;;;;5029689;28;20037;-83
2021/08/30 02:13:31;;;;;;;58.47;19.75;;;16.90;99.90;;;;;;5019848;28;20037;-83
2021/08/30 02:16:01;;;;;;;46.58;19.98;;;16.90;99.90;;;;;;5026399;28;20504;-82
2021/08/30 02:18:48;;;;;;;47.72;19.00;;;16.90;99.90;;;;;;5023495;28;22295;-83
2021/08/30 02:21:45;;;;;;;43.00;19.02;;;16.90;99.90;;;;;;5037911;28;20552;-83
2021/08/30 02:24:24;;;;;;;50.42;21.45;;;16.90;99.90;;;;;;5020517;28;20145;-82
2021/08/30 02:26:59;;;;;;;57.88;21.13;;;16.90;99.90;;;;;;5020160;28;20033;-83
2021/08/30 02:29:28;;;;;;;58.00;19.48;;;16.90;99.90;;;;;;5018983;28;20542;-82
2021/08/30 02:32:01;;;;;;;45.47;19.42;;;16.90;99.90;;;;;;5017388;28;20096;-82
2021/08/30 02:34:29;;;;;;;51.72;19.40;;;16.90;99.90;;;;;;5014851;28;20038;-83
2021/08/30 02:36:57;;;;;;;46.95;19.10;;;16.90;99.90;;;;;;5018149;28;20065;-83
2021/08/30 02:39:24;;;;;;;56.50;20.40;;;16.80;99.90;;;;;;5023752;28;20048;-82
2021/08/30 02:41:51;;;;;;;44.00;19.60;;;16.80;99.90;;;;;;5025291;28;20048;-83
2021/08/30 02:44:17;;;;;;;52.17;20.05;;;16.80;99.90;;;;;;4998321;28;20065;-82
2021/08/30 02:46:47;;;;;;;49.58;20.35;;;16.90;99.90;;;;;;5014782;28;20614;-83
2021/08/30 02:49:14;;;;;;;56.53;20.65;;;16.80;99.90;;;;;;5018587;28;20049;-83
2021/08/30 02:51:41;;;;;;;43.58;18.83;;;16.80;99.90;;;;;;5020023;28;20041;-82
2021/08/30 02:54:08;;;;;;;52.30;20.58;;;16.80;99.90;;;;;;5020190;28;20354;-82
2021/08/30 02:56:35;;;;;;;54.90;20.63;;;16.80;99.90;;;;;;5008852;28;20057;-82
2021/08/30 02:59:02;;;;;;;50.75;20.00;;;16.80;99.90;;;;;;5025444;28;20522;-81
2021/08/30 03:01:28;;;;;;;49.50;18.92;;;16.80;99.90;;;;;;5002424;28;20053;-80
2021/08/30 03:03:55;;;;;;;51.05;20.02;;;16.80;99.90;;;;;;5003295;28;20162;-82
2021/08/30 03:06:22;;;;;;;55.10;20.15;;;16.70;99.90;;;;;;5009673;28;20070;-82
2021/08/30 03:08:48;;;;;;;56.83;20.90;;;16.80;99.90;;;;;;4997461;28;20045;-82
2021/08/30 03:11:14;;;;;;;60.83;20.17;;;16.70;99.90;;;;;;5021002;28;20497;-83
2021/08/30 03:13:42;;;;;;;45.92;19.85;;;16.70;99.90;;;;;;5018548;28;20489;-82
2021/08/30 03:16:07;;;;;;;48.08;19.65;;;16.70;99.90;;;;;;5005945;28;20046;-84
2021/08/30 03:18:34;;;;;;;52.10;20.85;;;16.70;99.90;;;;;;5006476;28;20061;-83
2021/08/30 03:21:00;;;;;;;61.15;20.65;;;16.70;99.90;;;;;;5004082;28;20438;-82
2021/08/30 03:23:27;;;;;;;40.80;20.05;;;16.70;99.90;;;;;;5007516;28;20095;-83
2021/08/30 03:25:54;;;;;;;54.10;21.50;;;16.70;99.90;;;;;;5010363;28;20409;-82
2021/08/30 03:28:21;;;;;;;54.58;21.80;;;16.60;99.90;;;;;;4990939;28;20115;-82
2021/08/30 03:31:00;;;;;;;55.58;21.95;;;16.60;99.90;;;;;;5004715;28;20381;-84
2021/08/30 03:33:27;;;;;;;57.90;21.80;;;16.60;99.90;;;;;;5007393;28;20045;-84
2021/08/30 03:35:53;;;;;;;68.50;23.05;;;16.60;99.90;;;;;;4992120;28;20057;-82
2021/08/30 03:38:22;;;;;;;66.30;22.83;;;16.60;99.90;;;;;;5006057;28;20040;-83
2021/08/30 03:40:50;;;;;;;53.47;21.45;;;16.50;99.90;;;;;;5002429;28;20146;-81
2021/08/30 03:43:16;;;;;;;53.50;21.95;;;16.50;99.90;;;;;;4996932;28;20125;-81
2021/08/30 03:45:43;;;;;;;61.00;23.23;;;16.50;99.90;;;;;;4997123;28;20100;-82
2021/08/30 03:48:09;;;;;;;71.78;24.90;;;16.50;99.90;;;;;;5004006;28;20041;-82
2021/08/30 03:50:36;;;;;;;65.13;23.30;;;16.50;99.90;;;;;;5002219;28;20040;-83
2021/08/30 03:53:02;;;;;;;63.33;23.13;;;16.50;99.90;;;;;;5001993;28;20275;-83
2021/08/30 03:55:30;;;;;;;54.58;22.63;;;16.50;99.90;;;;;;5003180;28;20172;-83
2021/08/30 03:57:57;;;;;;;63.85;22.35;;;16.40;99.90;;;;;;5020058;28;20133;-82
2021/08/30 04:00:26;;;;;;;58.85;22.67;;;16.40;99.90;;;;;;4989357;28;20432;-82
2021/08/30 04:02:54;;;;;;;48.63;20.92;;;16.40;99.90;;;;;;5000349;28;20092;-82
2021/08/30 04:05:23;;;;;;;58.00;22.05;;;16.40;99.90;;;;;;5006566;28;20132;-83
2021/08/30 04:07:51;;;;;;;54.15;22.45;;;16.40;99.90;;;;;;5006829;28;20038;-83
2021/08/30 04:10:18;;;;;;;59.03;23.13;;;16.40;99.90;;;;;;5003810;28;20432;-82
2021/08/30 04:12:44;;;;;;;53.45;21.38;;;16.30;99.90;;;;;;5008119;28;20049;-83
2021/08/30 04:15:10;;;;;;;65.80;21.88;;;16.30;99.90;;;;;;5007202;28;20527;-82
2021/08/30 04:17:36;;;;;;;66.28;22.55;;;16.30;99.90;;;;;;5006538;28;20046;-82
2021/08/30 04:20:02;;;;;;;51.83;20.80;;;16.20;99.90;;;;;;4999784;28;20394;-83
2021/08/30 04:22:28;;;;;;;60.50;21.70;;;16.20;99.90;;;;;;5007451;28;20038;-82
2021/08/30 04:24:53;;;;;;;62.38;21.90;;;16.20;99.90;;;;;;5004211;28;20053;-83
2021/08/30 04:27:19;;;;;;;65.80;23.00;;;16.20;99.90;;;;;;5007376;28;20038;-82
2021/08/30 04:29:45;;;;;;;56.67;21.52;;;16.20;99.90;;;;;;5004199;28;20045;-84
2021/08/30 04:32:12;;;;;;;60.22;22.23;;;16.20;99.90;;;;;;4985734;28;20669;-84
2021/08/30 04:34:38;;;;;;;59.97;21.15;;;16.20;99.90;;;;;;4990120;28;20042;-83
2021/08/30 04:37:04;;;;;;;59.88;21.00;;;16.20;99.90;;;;;;4982949;28;20058;-83
2021/08/30 04:39:30;;;;;;;55.78;19.80;;;16.20;99.90;;;;;;4984357;28;20068;-84
2021/08/30 04:41:56;;;;;;;55.88;20.35;;;16.10;99.90;;;;;;5012531;28;20389;-82
2021/08/30 04:44:22;;;;;;;48.42;19.33;;;16.10;99.90;;;;;;5006992;28;20507;-84
2021/08/30 04:46:48;;;;;;;61.00;20.27;;;16.10;99.90;;;;;;4999974;28;20042;-83
2021/08/30 04:49:14;;;;;;;73.45;19.77;;;16.10;99.90;;;;;;5004567;28;20062;-83
2021/08/30 04:51:40;;;;;;;71.57;20.27;;;16.10;99.90;;;;;;5004064;28;20123;-84
2021/08/30 04:54:05;;;;;;;39.67;17.70;;;16.30;99.90;;;;;;5010050;28;20457;-83
2021/08/30 04:56:31;;;;;;;52.90;18.15;;;16.20;99.90;;;;;;5007445;28;20196;-84
2021/08/30 04:58:57;;;;;;;57.42;20.02;;;16.20;99.90;;;;;;5006269;28;20038;-84
2021/08/30 05:01:24;;;;;;;55.75;19.35;;;16.20;99.90;;;;;;5009922;28;20042;-82
2021/08/30 05:03:53;;;;;;;49.65;19.15;;;16.30;99.90;;;;;;4991778;28;20049;-79
2021/08/30 05:06:19;;;;;;;55.58;19.55;;;16.20;99.90;;;;;;4999811;28;20105;-82
2021/08/30 05:08:45;;;;;;;45.67;19.05;;;16.10;99.90;;;;;;5008702;28;20061;-82
2021/08/30 05:11:11;;;;;;;61.72;19.63;;;16.20;99.90;;;;;;4989728;28;20054;-82
2021/08/30 05:13:37;;;;;;;55.78;19.02;;;16.30;99.90;;;;;;5012812;28;20034;-83
2021/08/30 05:16:03;;;;;;;45.00;18.92;;;16.30;99.90;;;;;;5041084;28;20079;-82
2021/08/30 05:18:29;;;;;;;50.72;18.85;;;16.30;99.90;;;;;;5009023;28;20547;-82
2021/08/30 05:20:54;;;;;;;44.22;18.35;;;16.20;99.90;;;;;;5047025;28;20049;-82
2021/08/30 05:23:20;;;;;;;46.13;18.67;;;16.30;99.90;;;;;;5024922;28;20076;-82
2021/08/30 05:25:46;;;;;;;45.17;17.60;;;16.30;99.90;;;;;;5022214;28;20042;-83
2021/08/30 05:28:13;;;;;;;48.50;19.50;;;16.30;99.90;;;;;;5023563;28;20033;-82
2021/08/30 05:30:39;;;;;;;42.40;16.30;;;16.30;99.90;;;;;;5043280;28;20060;-83
2021/08/30 05:33:05;;;;;;;44.10;16.65;;;16.30;99.90;;;;;;5008866;28;20033;-83
2021/08/30 05:35:31;;;;;;;38.42;17.85;;;16.30;99.90;;;;;;5009266;28;20060;-80
2021/08/30 05:37:57;;;;;;;48.33;17.98;;;16.40;99.90;;;;;;5012281;28;20098;-80
2021/08/30 05:40:22;;;;;;;40.33;18.10;;;16.30;99.90;;;;;;5022013;28;20138;-80
2021/08/30 05:42:49;;;;;;;42.83;18.50;;;16.30;99.90;;;;;;5026323;28;20041;-83
2021/08/30 05:45:15;;;;;;;39.22;18.33;;;16.30;99.90;;;;;;5018973;28;20070;-83
2021/08/30 05:47:42;;;;;;;34.00;17.52;;;16.40;99.90;;;;;;5029169;28;20049;-83
2021/08/30 05:50:08;;;;;;;33.38;17.00;;;16.40;99.90;;;;;;5007942;28;20400;-83
2021/08/30 05:52:34;;;;;;;38.15;17.38;;;16.50;99.90;;;;;;5025722;28;20044;-84
2021/08/30 05:55:00;;;;;;;42.70;17.75;;;16.50;99.90;;;;;;5007329;28;20356;-83
2021/08/30 05:57:25;;;;;;;35.05;17.98;;;16.50;99.90;;;;;;5028774;28;20368;-81
2021/08/30 05:59:51;;;;;;;39.53;18.83;;;16.50;99.90;;;;;;5047159;28;20102;-81
2021/08/30 06:02:17;;;;;;;32.90;16.63;;;16.60;99.90;;;;;;5029261;28;20494;-81
2021/08/30 06:04:43;;;;;;;31.90;17.15;;;16.60;99.90;;;;;;5027761;28;20144;-83
2021/08/30 06:07:09;;;;;;;35.33;18.40;;;16.70;99.90;;;;;;5025799;28;20072;-83
2021/08/30 06:09:34;;;;;;;38.42;17.52;;;16.70;99.90;;;;;;5011444;28;20131;-84
2021/08/30 06:12:02;;;;;;;29.40;16.80;;;16.70;99.90;;;;;;5020713;28;20337;-83
2021/08/30 06:14:28;;;;;;;28.77;16.63;;;16.80;99.90;;;;;;5009600;28;20057;-83
2021/08/30 06:16:53;;;;;;;39.70;17.20;;;16.90;99.90;;;;;;5019018;28;20045;-82
2021/08/30 06:19:19;;;;;;;28.63;16.00;;;17.00;99.90;;;;;;5026317;28;20064;-84
2021/08/30 06:21:45;;;;;;;32.30;16.05;;;17.00;99.90;;;;;;5011613;28;20033;-84
2021/08/30 06:24:10;;;;;;;30.42;16.05;;;17.10;99.90;;;;;;5039803;28;20052;-84
2021/08/30 06:26:37;;;;;;;38.50;15.25;;;17.00;99.90;;;;;;5013250;28;20057;-83
2021/08/30 06:29:04;;;;;;;26.30;15.27;;;17.10;99.90;;;;;;5022893;28;20112;-83
2021/08/30 06:31:30;;;;;;;30.38;15.07;;;17.20;99.90;;;;;;5011340;28;20143;-83
2021/08/30 06:33:56;;;;;;;30.50;15.23;;;17.20;99.90;;;;;;5004583;28;20118;-83
2021/08/30 06:36:22;;;;;;;30.52;14.50;;;17.20;99.90;;;;;;5026810;28;20440;-83
2021/08/30 06:38:48;;;;;;;30.00;14.73;;;17.30;99.90;;;;;;5039025;28;20183;-82
2021/08/30 06:41:16;;;;;;;31.05;14.88;;;17.40;99.90;;;;;;5023958;28;20168;-83
2021/08/30 06:43:41;;;;;;;24.88;13.68;;;17.40;99.90;;;;;;5027282;28;20037;-84
2021/08/30 06:46:07;;;;;;;32.38;14.35;;;17.40;99.90;;;;;;5009894;28;20330;-84
2021/08/30 06:48:33;;;;;;;28.50;14.52;;;17.50;99.90;;;;;;5025583;28;20037;-84
2021/08/30 06:50:58;;;;;;;30.13;14.30;;;17.50;99.90;;;;;;4997941;28;20504;-82
2021/08/30 06:53:24;;;;;;;28.60;13.75;;;17.60;99.90;;;;;;5003809;28;20042;-79
2021/08/30 06:55:50;;;;;;;24.40;14.05;;;17.60;99.90;;;;;;5028026;28;20119;-81
2021/08/30 06:58:15;;;;;;;24.58;14.10;;;17.70;99.90;;;;;;5013166;28;20129;-81
2021/08/30 07:00:41;;;;;;;24.90;13.45;;;17.60;99.90;;;;;;5039625;28;20050;-82
2021/08/30 07:03:08;;;;;;;26.67;13.55;;;17.70;99.90;;;;;;5023117;28;20392;-82
2021/08/30 07:05:34;;;;;;;26.75;13.65;;;17.70;99.90;;;;;;5026285;28;20052;-81
2021/08/30 07:08:00;;;;;;;27.30;12.75;;;17.80;99.90;;;;;;5004312;28;20033;-81
2021/08/30 07:10:25;;;;;;;23.10;12.85;;;17.90;99.90;;;;;;5028597;28;20032;-81
2021/08/30 07:12:53;;;;;;;26.25;12.32;;;18.00;99.90;;;;;;5009769;28;20118;-82
2021/08/30 07:15:19;;;;;;;22.45;12.48;;;18.00;99.90;;;;;;5024616;28;20141;-84
2021/08/30 07:17:45;;;;;;;23.75;11.98;;;18.20;99.90;;;;;;5025164;28;20178;-83
2021/08/30 07:20:11;;;;;;;22.67;12.45;;;18.10;99.90;;;;;;5036778;28;20042;-83
2021/08/30 07:22:37;;;;;;;24.85;12.02;;;18.10;99.90;;;;;;5023174;28;20060;-84
2021/08/30 07:25:03;;;;;;;23.20;11.88;;;18.10;99.90;;;;;;5032496;28;20049;-84
2021/08/30 07:27:28;;;;;;;21.50;11.95;;;18.20;99.90;;;;;;5032789;28;20460;-83
2021/08/30 07:29:54;;;;;;;25.10;12.35;;;18.30;99.90;;;;;;5040396;28;20098;-82
2021/08/30 07:32:20;;;;;;;19.38;10.48;;;18.30;99.90;;;;;;5015689;28;20217;-85
2021/08/30 07:34:45;;;;;;;29.17;12.13;;;18.30;99.90;;;;;;5021571;28;20037;-83
2021/08/30 07:37:11;;;;;;;21.33;10.82;;;18.40;99.90;;;;;;5037924;28;20538;-83
2021/08/30 07:39:37;;;;;;;25.23;11.10;;;18.60;99.90;;;;;;5024934;28;20108;-84
2021/08/30 07:42:03;;;;;;;19.73;10.52;;;18.60;99.90;;;;;;5029845;28;20399;-82
2021/08/30 07:44:29;;;;;;;18.58;9.82;;;18.70;99.90;;;;;;5023872;28;20037;-84
2021/08/30 07:46:54;;;;;;;17.52;9.45;;;18.70;99.90;;;;;;5001082;28;20107;-84
2021/08/30 07:49:20;;;;;;;18.25;9.52;;;18.80;99.90;;;;;;5012689;28;20099;-82
2021/08/30 07:51:46;;;;;;;14.10;9.38;;;18.70;99.90;;;;;;5029670;28;20047;-85
2021/08/30 07:54:12;;;;;;;15.63;9.38;;;18.80;99.90;;;;;;5027991;28;20051;-82
2021/08/30 07:56:40;;;;;;;19.77;10.48;;;18.90;99.90;;;;;;5023629;28;20116;-84
2021/08/30 07:59:07;;;;;;;15.48;8.85;;;19.00;99.90;;;;;;5022051;28;20053;-84
2021/08/30 08:01:34;;;;;;;14.80;9.13;;;19.00;99.90;;;;;;5007075;28;20037;-80
2021/08/30 08:04:00;;;;;;;15.55;9.00;;;19.10;99.90;;;;;;5022925;28;20387;-81
2021/08/30 08:06:25;;;;;;;21.85;8.82;;;19.10;99.90;;;;;;5039686;28;20118;-82
2021/08/30 08:08:51;;;;;;;16.70;9.13;;;19.20;99.90;;;;;;5026637;28;20036;-80
2021/08/30 08:11:17;;;;;;;15.88;9.00;;;19.30;99.90;;;;;;5040607;28;20025;-83
2021/08/30 08:13:43;;;;;;;12.45;8.27;;;19.40;99.90;;;;;;5023307;28;20041;-81
2021/08/30 08:16:08;;;;;;;16.77;7.90;;;19.40;99.90;;;;;;5027421;28;20053;-81
2021/08/30 08:18:34;;;;;;;12.55;7.45;;;19.30;99.90;;;;;;5025063;28;20033;-81
2021/08/30 08:21:02;;;;;;;12.80;7.78;;;19.30;99.90;;;;;;5010710;28;20049;-81
2021/08/30 08:23:28;;;;;;;15.00;7.72;;;19.20;99.90;;;;;;4990458;28;20025;-81
2021/08/30 08:25:53;;;;;;;12.35;7.72;;;19.30;99.90;;;;;;5006522;28;20053;-79
2021/08/30 08:28:19;;;;;;;12.90;7.60;;;19.30;99.90;;;;;;5012143;28;20051;-80
2021/08/30 08:30:45;;;;;;;9.45;6.70;;;19.50;99.90;;;;;;5010251;28;20116;-85
2021/08/30 08:33:11;;;;;;;14.68;7.38;;;19.60;99.90;;;;;;5025968;28;20037;-83
2021/08/30 08:35:40;;;;;;;8.73;6.45;;;19.60;99.90;;;;;;5007133;28;20060;-81
2021/08/30 08:38:06;;;;;;;9.30;6.70;;;19.50;99.90;;;;;;5026437;28;20080;-84
2021/08/30 08:40:31;;;;;;;11.88;7.05;;;19.50;99.90;;;;;;5031483;28;20461;-84
2021/08/30 08:42:57;;;;;;;10.43;6.93;;;19.50;99.90;;;;;;5028712;28;20040;-78
2021/08/30 08:45:23;;;;;;;10.60;6.65;;;19.50;99.90;;;;;;5040597;28;20038;-80
2021/08/30 08:47:48;;;;;;;9.50;6.10;;;19.70;99.90;;;;;;5025577;28;20033;-77
2021/08/30 08:50:19;;;;;;;10.50;7.07;;;19.90;99.90;;;;;;5024531;28;20106;-79
2021/08/30 08:52:44;;;;;;;12.15;6.32;;;20.10;99.90;;;;;;5011384;28;20135;-83
2021/08/30 08:55:12;;;;;;;10.65;5.68;;;20.20;99.90;;;;;;5028020;28;20184;-82
2021/08/30 08:57:38;;;;;;;8.90;5.57;;;20.10;99.90;;;;;;5027787;28;20088;-83
2021/08/30 09:00:07;;;;;;;6.78;5.50;;;20.00;99.90;;;;;;5009389;28;20073;-82
2021/08/30 09:02:34;;;;;;;7.40;5.63;;;20.00;99.90;;;;;;5025158;28;20459;-79
2021/08/30 09:05:01;;;;;;;10.93;5.93;;;19.90;99.90;;;;;;5003845;28;20050;-78
2021/08/30 09:07:37;;;;;;;10.73;5.28;;;19.80;99.90;;;;;;5008024;28;20333;-78
2021/08/30 09:10:05;;;;;;;9.45;6.03;;;19.90;99.90;;;;;;5024230;28;20037;-80
2021/08/30 09:12:31;;;;;;;7.78;5.35;;;20.00;99.90;;;;;;5024113;28;20318;-82
2021/08/30 09:14:57;;;;;;;8.73;5.40;;;20.10;99.90;;;;;;5027832;28;20056;-85
2021/08/30 09:17:23;;;;;;;9.05;5.78;;;20.00;99.90;;;;;;5024472;28;20151;-79
2021/08/30 09:19:54;;;;;;;9.18;5.30;;;20.10;99.90;;;;;;5023370;28;20411;-77
2021/08/30 09:22:31;;;;;;;14.30;5.80;;;20.10;99.90;;;;;;5027214;28;20048;-77
2021/08/30 09:25:08;;;;;;;9.75;5.88;;;20.10;99.90;;;;;;5019164;28;20049;-83
2021/08/30 09:27:36;;;;;;;9.65;5.75;;;20.00;99.90;;;;;;5026503;28;20048;-80
2021/08/30 09:30:11;;;;;;;13.82;6.30;;;20.10;99.90;;;;;;5011773;28;20492;-77
2021/08/30 09:32:37;;;;;;;12.05;5.00;;;20.00;99.90;;;;;;5026858;28;20052;-82
2021/08/30 09:35:04;;;;;;;7.78;5.03;;;19.80;99.90;;;;;;5007893;28;20054;-78
2021/08/30 09:37:37;;;;;;;10.70;5.90;;;19.80;99.90;;;;;;5007127;28;20095;-78
2021/08/30 09:40:06;;;;;;;8.93;6.05;;;19.80;99.90;;;;;;5024453;28;20140;-78
2021/08/30 09:42:32;;;;;;;12.15;5.72;;;19.80;99.90;;;;;;5009051;28;20061;-76
2021/08/30 09:45:28;;;;;;;10.45;5.97;;;20.00;99.90;;;;;;5025505;28;20433;-78
2021/08/30 09:47:55;;;;;;;12.40;5.85;;;20.10;99.90;;;;;;4940206;28;20067;-82
2021/08/30 09:50:28;;;;;;;10.07;5.70;;;20.10;99.90;;;;;;4945240;28;20632;-81
2021/08/30 09:52:54;;;;;;;10.40;5.78;;;20.10;99.90;;;;;;4943933;28;20115;-83
2021/08/30 09:55:20;;;;;;;11.18;5.30;;;20.10;99.90;;;;;;4929131;28;20045;-83
2021/08/30 09:57:50;;;;;;;10.68;5.90;;;20.10;99.90;;;;;;4927331;29;20425;-81
2021/08/30 10:00:18;;;;;;;11.48;5.90;;;20.40;99.90;;;;;;4933516;28;20047;-77
2021/08/30 10:02:54;;;;;;;8.90;5.40;;;20.40;99.90;;;;;;4928962;28;20090;-82
2021/08/30 10:05:23;;;;;;;11.70;5.45;;;20.20;99.90;;;;;;4944114;28;20167;-80
2021/08/30 10:07:48;;;;;;;7.45;4.95;;;20.10;99.90;;;;;;4940447;28;20043;-79
2021/08/30 10:10:16;;;;;;;10.52;5.28;;;20.10;99.90;;;;;;4925373;29;20036;-78
2021/08/30 10:12:43;;;;;;;9.65;5.20;;;20.20;99.90;;;;;;4928187;28;20065;-80
2021/08/30 10:15:11;;;;;;;9.57;4.88;;;20.50;99.90;;;;;;4926583;28;20063;-81
2021/08/30 10:18:40;;;;;;;7.55;4.90;;;20.60;99.90;;;;;;4947503;28;20054;-77
2021/08/30 10:21:15;;;;;;;6.75;4.95;;;20.50;99.90;;;;;;4931341;28;20059;-81
2021/08/30 10:23:41;;;;;;;7.72;5.20;;;20.50;99.90;;;;;;4966983;28;20049;-78
2021/08/30 10:26:10;;;;;;;9.18;5.03;;;20.60;99.90;;;;;;5028710;28;20127;-81
2021/08/30 10:28:39;;;;;;;9.75;5.40;;;20.50;99.90;;;;;;5025259;28;20121;-81
2021/08/30 10:31:18;;;;;;;9.02;5.43;;;20.50;99.90;;;;;;5008804;28;20132;-78
2021/08/30 10:33:47;;;;;;;13.02;6.22;;;20.40;99.90;;;;;;5020343;28;20045;-79
2021/08/30 10:36:14;;;;;;;12.23;5.90;;;20.20;99.90;;;;;;5030073;28;20407;-77
2021/08/30 10:38:40;;;;;;;9.02;5.53;;;20.20;99.90;;;;;;5025296;28;20148;-80
2021/08/30 10:41:17;;;;;;;9.23;5.55;;;20.60;99.90;;;;;;5024412;28;20120;-77
2021/08/30 10:43:45;;;;;;;9.55;5.57;;;20.80;99.90;;;;;;5008194;28;20034;-79
2021/08/30 10:46:17;;;;;;;10.48;5.75;;;21.00;99.90;;;;;;5021469;28;20098;-79
2021/08/30 10:48:51;;;;;;;8.82;5.15;;;20.90;99.90;;;;;;5021510;28;20039;-76
2021/08/30 10:51:19;;;;;;;8.27;5.15;;;20.80;99.90;;;;;;5003706;28;20041;-78
2021/08/30 10:53:56;;;;;;;12.07;6.00;;;20.90;99.90;;;;;;5019308;28;20438;-80
2021/08/30 10:56:32;;;;;;;11.20;6.25;;;21.20;99.90;;;;;;5016714;28;20033;-79
2021/08/30 10:59:06;;;;;;;9.93;5.57;;;21.40;99.90;;;;;;5009482;28;20097;-81
2021/08/30 11:01:33;;;;;;;8.57;4.93;;;21.70;99.90;;;;;;5006465;28;21632;-81
2021/08/30 11:03:59;;;;;;;7.72;4.45;;;21.70;99.90;;;;;;5024356;28;20484;-80
2021/08/30 11:06:25;;;;;;;9.63;5.47;;;21.70;99.90;;;;;;5008064;28;20136;-78
2021/08/30 11:08:51;;;;;;;9.10;5.80;;;21.50;99.90;;;;;;5026051;28;20033;-79
2021/08/30 11:11:25;;;;;;;8.85;4.45;;;21.40;99.90;;;;;;5024237;28;20079;-78
2021/08/30 11:13:58;;;;;;;7.07;4.22;;;21.30;99.90;;;;;;5024171;28;20036;-79
2021/08/30 11:16:26;;;;;;;6.32;4.55;;;21.00;99.90;;;;;;5025426;28;20048;-78
2021/08/30 11:18:57;;;;;;;9.13;5.13;;;20.80;99.90;;;;;;5019174;28;20540;-80
2021/08/30 11:21:42;;;;;;;10.70;5.88;;;21.10;99.90;;;;;;5006507;28;20055;-82
2021/08/30 11:24:28;;;;;;;10.80;5.10;;;21.60;99.90;;;;;;5014122;28;20045;-78
2021/08/30 11:27:01;;;;;;;6.68;5.00;;;21.70;99.90;;;;;;5010110;28;20081;-79
2021/08/30 11:29:28;;;;;;;7.25;5.13;;;21.60;99.90;;;;;;5005808;28;20060;-77
2021/08/30 11:31:54;;;;;;;7.72;5.10;;;21.60;99.90;;;;;;5018876;28;20144;-79
2021/08/30 11:34:25;;;;;;;8.90;4.50;;;21.60;99.90;;;;;;5006822;28;20112;-78
2021/08/30 11:36:51;;;;;;;7.20;4.60;;;21.30;99.90;;;;;;5022818;28;20158;-81
2021/08/30 11:39:18;;;;;;;30.73;5.00;;;21.00;99.90;;;;;;5027447;28;20059;-80
2021/08/30 11:41:45;;;;;;;7.32;4.88;;;21.10;99.90;;;;;;5004620;28;20057;-79
2021/08/30 11:44:13;;;;;;;7.65;4.53;;;21.00;99.90;;;;;;5027670;28;20102;-79
2021/08/30 11:46:43;;;;;;;5.40;4.07;;;21.00;99.90;;;;;;5022872;28;20033;-79
2021/08/30 11:49:10;;;;;;;6.32;4.45;;;21.30;99.90;;;;;;5026290;28;20032;-80
2021/08/30 11:51:43;;;;;;;9.98;4.75;;;21.40;99.90;;;;;;5028047;28;20044;-80
2021/08/30 11:54:15;;;;;;;9.18;4.88;;;21.60;99.90;;;;;;5018290;28;20080;-80
2021/08/30 11:56:41;;;;;;;8.18;4.10;;;22.00;99.90;;;;;;5010158;28;20411;-83
2021/08/30 11:59:06;;;;;;;6.68;4.63;;;21.90;99.90;;;;;;5030561;28;20033;-80
2021/08/30 12:01:37;;;;;;;7.30;4.57;;;22.10;99.90;;;;;;5015472;28;20071;-81
2021/08/30 12:04:15;;;;;;;8.05;4.90;;;22.00;99.90;;;;;;5011277;28;20041;-79
2021/08/30 12:06:47;;;;;;;6.05;4.90;;;22.20;99.90;;;;;;5008250;28;20110;-81
2021/08/30 12:09:13;;;;;;;8.95;4.50;;;22.30;99.90;;;;;;5040223;28;20447;-79
2021/08/30 12:12:17;;;;;;;6.97;4.38;;;22.50;99.90;;;;;;5022688;28;20137;-81
2021/08/30 12:15:30;;;;;;;6.30;3.90;;;22.70;99.90;;;;;;4912862;29;20147;-78
2021/08/30 12:17:58;;;;;;;7.55;4.53;;;22.80;99.90;;;;;;4896905;29;20048;-81
2021/08/30 12:20:32;;;;;;;5.43;4.45;;;22.40;99.90;;;;;;4913545;29;20078;-81
2021/08/30 12:23:01;;;;;;;5.70;4.15;;;22.20;99.90;;;;;;4889608;29;20118;-81
2021/08/30 12:25:29;;;;;;;6.18;5.40;;;22.50;99.90;;;;;;4907335;29;20060;-78
2021/08/30 12:27:56;;;;;;;8.25;5.10;;;22.50;99.90;;;;;;4905816;29;21541;-79
2021/08/30 12:30:32;;;;;;;8.38;5.63;;;22.20;99.90;;;;;;4905160;29;20040;-77
2021/08/30 12:33:02;;;;;;;8.68;5.72;;;21.80;99.90;;;;;;4906539;29;20048;-78
2021/08/30 12:35:33;;;;;;;8.85;5.45;;;21.60;99.90;;;;;;4918393;29;20071;-79
2021/08/30 12:38:02;;;;;;;8.57;6.18;;;21.70;99.90;;;;;;4897849;29;20060;-81
2021/08/30 12:40:30;;;;;;;11.57;5.78;;;22.00;99.90;;;;;;4902622;29;20095;-82
2021/08/30 12:42:55;;;;;;;8.07;6.00;;;22.40;99.90;;;;;;4909084;29;20059;-78